sensor_id;sensor_type;location;lat;lon;timestamp;P1;durP1;ratioP1;P2;durP2;ratioP2
9906;SDS011;4992;51.628;6.664;2023-05-10T00:00:39;18.48;;;12.02;;
9906;SDS011;4992;51.628;6.664;2023-05-10T00:03:05;18.38;;;13.27;;
9906;SDS011;4992;51.628;6.664;2023-05-10T00:05:31;18.55;;;13.07;;
9906;SDS011;4992;51.628;6.664;2023-05-10T00:07:57;18.52;;;12.63;;
9906;SDS011;4992;51.628;6.664;2023-05-10T00:10:23;21.83;;;12.90;;
9906;SDS011;4992;51.628;6.664;2023-05-10T00:12:49;19.15;;;13.35;;
9906;SDS011;4992;51.628;6.664;2023-05-10T00:15:15;17.55;;;12.00;;
9906;SDS011;4992;51.628;6.664;2023-05-10T00:17:41;17.05;;;12.48;;
9906;SDS011;4992;51.628;6.664;2023-05-10T00:20:07;18.50;;;12.88;;
9906;SDS011;4992;51.628;6.664;2023-05-10T00:22:33;17.80;;;11.93;;
9906;SDS011;4992;51.628;6.664;2023-05-10T00:24:59;19.80;;;12.23;;
9906;SDS011;4992;51.628;6.664;2023-05-10T00:27:25;18.88;;;12.52;;
9906;SDS011;4992;51.628;6.664;2023-05-10T00:29:51;22.73;;;13.27;;
9906;SDS011;4992;51.628;6.664;2023-05-10T00:32:17;20.48;;;12.63;;
9906;SDS011;4992;51.628;6.664;2023-05-10T00:34:43;21.60;;;12.88;;
9906;SDS011;4992;51.628;6.664;2023-05-10T00:37:09;20.77;;;13.88;;
9906;SDS011;4992;51.628;6.664;2023-05-10T00:39:35;22.75;;;13.30;;
9906;SDS011;4992;51.628;6.664;2023-05-10T00:42:00;21.02;;;13.85;;
9906;SDS011;4992;51.628;6.664;2023-05-10T00:44:26;21.63;;;14.18;;
9906;SDS011;4992;51.628;6.664;2023-05-10T00:46:52;24.15;;;15.18;;
9906;SDS011;4992;51.628;6.664;2023-05-10T00:49:19;22.25;;;15.07;;
9906;SDS011;4992;51.628;6.664;2023-05-10T00:51:45;23.15;;;14.93;;
9906;SDS011;4992;51.628;6.664;2023-05-10T00:54:11;26.00;;;14.63;;
9906;SDS011;4992;51.628;6.664;2023-05-10T00:56:37;23.90;;;14.90;;
9906;SDS011;4992;51.628;6.664;2023-05-10T00:59:03;25.45;;;15.10;;
9906;SDS011;4992;51.628;6.664;2023-05-10T01:01:29;25.85;;;15.90;;
9906;SDS011;4992;51.628;6.664;2023-05-10T01:03:56;27.02;;;16.40;;
9906;SDS011;4992;51.628;6.664;2023-05-10T01:06:22;26.33;;;15.98;;
9906;SDS011;4992;51.628;6.664;2023-05-10T01:08:48;27.23;;;15.77;;
9906;SDS011;4992;51.628;6.664;2023-05-10T01:11:14;24.42;;;15.32;;
9906;SDS011;4992;51.628;6.664;2023-05-10T01:13:41;24.15;;;14.90;;
9906;SDS011;4992;51.628;6.664;2023-05-10T01:19:32;25.55;;;15.73;;
9906;SDS011;4992;51.628;6.664;2023-05-10T01:35:14;24.05;;;15.25;;
9906;SDS011;4992;51.628;6.664;2023-05-10T01:37:46;25.30;;;15.10;;
9906;SDS011;4992;51.628;6.664;2023-05-10T01:42:41;24.80;;;13.60;;
9906;SDS011;4992;51.628;6.664;2023-05-10T01:45:12;23.40;;;14.23;;
9906;SDS011;4992;51.628;6.664;2023-05-10T01:47:42;22.45;;;14.20;;
9906;SDS011;4992;51.628;6.664;2023-05-10T01:50:16;21.35;;;14.15;;
9906;SDS011;4992;51.628;6.664;2023-05-10T01:52:42;24.52;;;14.00;;
9906;SDS011;4992;51.628;6.664;2023-05-10T01:55:13;24.63;;;14.95;;
9906;SDS011;4992;51.628;6.664;2023-05-10T01:57:42;28.00;;;15.98;;
9906;SDS011;4992;51.628;6.664;2023-05-10T02:00:09;24.85;;;15.40;;
9906;SDS011;4992;51.628;6.664;2023-05-10T02:02:39;29.60;;;16.75;;
9906;SDS011;4992;51.628;6.664;2023-05-10T02:05:07;32.58;;;17.27;;
9906;SDS011;4992;51.628;6.664;2023-05-10T02:07:34;30.00;;;17.42;;
9906;SDS011;4992;51.628;6.664;2023-05-10T02:10:02;34.97;;;18.98;;
9906;SDS011;4992;51.628;6.664;2023-05-10T02:12:28;31.17;;;18.23;;
9906;SDS011;4992;51.628;6.664;2023-05-10T02:14:55;37.42;;;18.88;;
9906;SDS011;4992;51.628;6.664;2023-05-10T02:17:22;37.78;;;20.27;;
9906;SDS011;4992;51.628;6.664;2023-05-10T02:19:48;36.72;;;20.63;;
9906;SDS011;4992;51.628;6.664;2023-05-10T02:22:15;38.80;;;21.55;;
9906;SDS011;4992;51.628;6.664;2023-05-10T02:24:41;39.78;;;22.05;;
9906;SDS011;4992;51.628;6.664;2023-05-10T02:27:08;41.72;;;21.30;;
9906;SDS011;4992;51.628;6.664;2023-05-10T02:29:35;40.47;;;21.73;;
9906;SDS011;4992;51.628;6.664;2023-05-10T02:32:02;45.17;;;23.13;;
9906;SDS011;4992;51.628;6.664;2023-05-10T02:34:28;45.50;;;22.13;;
9906;SDS011;4992;51.628;6.664;2023-05-10T02:36:55;42.40;;;22.50;;
9906;SDS011;4992;51.628;6.664;2023-05-10T02:39:22;40.63;;;22.17;;
9906;SDS011;4992;51.628;6.664;2023-05-10T02:41:48;40.08;;;22.65;;
9906;SDS011;4992;51.628;6.664;2023-05-10T02:44:15;39.03;;;22.20;;
9906;SDS011;4992;51.628;6.664;2023-05-10T02:46:43;41.75;;;22.02;;
9906;SDS011;4992;51.628;6.664;2023-05-10T02:49:09;40.97;;;22.08;;
9906;SDS011;4992;51.628;6.664;2023-05-10T02:51:36;42.25;;;23.17;;
9906;SDS011;4992;51.628;6.664;2023-05-10T02:54:10;37.13;;;22.00;;
9906;SDS011;4992;51.628;6.664;2023-05-10T02:56:39;39.03;;;21.73;;
9906;SDS011;4992;51.628;6.664;2023-05-10T02:59:06;37.65;;;22.27;;
9906;SDS011;4992;51.628;6.664;2023-05-10T03:01:32;37.67;;;21.88;;
9906;SDS011;4992;51.628;6.664;2023-05-10T03:03:58;39.85;;;21.80;;
9906;SDS011;4992;51.628;6.664;2023-05-10T03:06:24;37.13;;;22.55;;
9906;SDS011;4992;51.628;6.664;2023-05-10T03:08:50;36.83;;;22.17;;
9906;SDS011;4992;51.628;6.664;2023-05-10T03:11:19;39.30;;;21.63;;
9906;SDS011;4992;51.628;6.664;2023-05-10T03:16:19;44.08;;;23.90;;
9906;SDS011;4992;51.628;6.664;2023-05-10T03:18:48;46.45;;;24.55;;
9906;SDS011;4992;51.628;6.664;2023-05-10T03:21:17;44.28;;;24.75;;
9906;SDS011;4992;51.628;6.664;2023-05-10T03:23:47;46.60;;;24.15;;
9906;SDS011;4992;51.628;6.664;2023-05-10T03:26:20;51.47;;;26.10;;
9906;SDS011;4992;51.628;6.664;2023-05-10T03:28:50;52.00;;;26.90;;
9906;SDS011;4992;51.628;6.664;2023-05-10T03:31:16;49.10;;;26.90;;
9906;SDS011;4992;51.628;6.664;2023-05-10T03:33:46;50.88;;;26.95;;
9906;SDS011;4992;51.628;6.664;2023-05-10T03:36:12;55.58;;;28.38;;
9906;SDS011;4992;51.628;6.664;2023-05-10T03:38:38;49.88;;;26.90;;
9906;SDS011;4992;51.628;6.664;2023-05-10T03:41:04;53.17;;;28.13;;
9906;SDS011;4992;51.628;6.664;2023-05-10T03:43:30;49.95;;;28.13;;
9906;SDS011;4992;51.628;6.664;2023-05-10T03:45:56;64.32;;;29.52;;
9906;SDS011;4992;51.628;6.664;2023-05-10T03:48:22;56.55;;;27.52;;
9906;SDS011;4992;51.628;6.664;2023-05-10T03:50:48;51.80;;;29.00;;
9906;SDS011;4992;51.628;6.664;2023-05-10T03:53:14;53.50;;;27.80;;
9906;SDS011;4992;51.628;6.664;2023-05-10T03:55:40;55.17;;;29.65;;
9906;SDS011;4992;51.628;6.664;2023-05-10T03:58:06;52.63;;;28.63;;
9906;SDS011;4992;51.628;6.664;2023-05-10T04:00:32;56.95;;;29.02;;
9906;SDS011;4992;51.628;6.664;2023-05-10T04:02:58;63.13;;;29.45;;
9906;SDS011;4992;51.628;6.664;2023-05-10T04:05:24;59.85;;;29.77;;
9906;SDS011;4992;51.628;6.664;2023-05-10T04:07:50;58.38;;;29.58;;
9906;SDS011;4992;51.628;6.664;2023-05-10T04:10:16;66.32;;;29.75;;
9906;SDS011;4992;51.628;6.664;2023-05-10T04:12:42;58.38;;;29.13;;
9906;SDS011;4992;51.628;6.664;2023-05-10T04:15:08;55.45;;;29.23;;
9906;SDS011;4992;51.628;6.664;2023-05-10T04:17:34;59.88;;;30.27;;
9906;SDS011;4992;51.628;6.664;2023-05-10T04:20:00;55.90;;;28.13;;
9906;SDS011;4992;51.628;6.664;2023-05-10T04:22:26;61.72;;;29.50;;
9906;SDS011;4992;51.628;6.664;2023-05-10T04:24:54;60.20;;;30.23;;
9906;SDS011;4992;51.628;6.664;2023-05-10T04:27:19;62.88;;;30.33;;
9906;SDS011;4992;51.628;6.664;2023-05-10T04:29:45;54.75;;;29.65;;
9906;SDS011;4992;51.628;6.664;2023-05-10T04:32:11;62.35;;;30.52;;
9906;SDS011;4992;51.628;6.664;2023-05-10T04:34:37;64.68;;;31.55;;
9906;SDS011;4992;51.628;6.664;2023-05-10T04:37:03;67.10;;;33.95;;
9906;SDS011;4992;51.628;6.664;2023-05-10T04:39:29;75.75;;;35.50;;
9906;SDS011;4992;51.628;6.664;2023-05-10T04:41:55;73.57;;;34.67;;
9906;SDS011;4992;51.628;6.664;2023-05-10T04:44:21;72.90;;;34.55;;
9906;SDS011;4992;51.628;6.664;2023-05-10T04:46:47;76.05;;;36.13;;
9906;SDS011;4992;51.628;6.664;2023-05-10T04:49:13;78.25;;;35.95;;
9906;SDS011;4992;51.628;6.664;2023-05-10T04:51:39;73.65;;;34.20;;
9906;SDS011;4992;51.628;6.664;2023-05-10T04:54:05;74.78;;;35.67;;
9906;SDS011;4992;51.628;6.664;2023-05-10T04:56:31;77.57;;;35.45;;
9906;SDS011;4992;51.628;6.664;2023-05-10T04:58:57;73.05;;;35.13;;
9906;SDS011;4992;51.628;6.664;2023-05-10T05:01:23;66.45;;;33.97;;
9906;SDS011;4992;51.628;6.664;2023-05-10T05:03:49;72.53;;;37.10;;
9906;SDS011;4992;51.628;6.664;2023-05-10T05:06:17;73.00;;;34.45;;
9906;SDS011;4992;51.628;6.664;2023-05-10T05:08:43;73.35;;;35.63;;
9906;SDS011;4992;51.628;6.664;2023-05-10T05:11:09;79.40;;;36.55;;
9906;SDS011;4992;51.628;6.664;2023-05-10T05:13:35;72.38;;;36.20;;
9906;SDS011;4992;51.628;6.664;2023-05-10T05:16:02;72.85;;;36.55;;
9906;SDS011;4992;51.628;6.664;2023-05-10T05:18:28;69.35;;;35.03;;
9906;SDS011;4992;51.628;6.664;2023-05-10T05:20:54;76.45;;;37.38;;
9906;SDS011;4992;51.628;6.664;2023-05-10T05:23:21;75.28;;;36.80;;
9906;SDS011;4992;51.628;6.664;2023-05-10T05:25:49;75.25;;;36.88;;
9906;SDS011;4992;51.628;6.664;2023-05-10T05:28:15;63.40;;;34.85;;
9906;SDS011;4992;51.628;6.664;2023-05-10T05:30:41;66.47;;;34.83;;
9906;SDS011;4992;51.628;6.664;2023-05-10T05:33:07;67.25;;;34.78;;
9906;SDS011;4992;51.628;6.664;2023-05-10T05:35:33;67.30;;;36.22;;
9906;SDS011;4992;51.628;6.664;2023-05-10T05:37:59;63.67;;;34.97;;
9906;SDS011;4992;51.628;6.664;2023-05-10T05:40:26;61.88;;;36.00;;
9906;SDS011;4992;51.628;6.664;2023-05-10T05:42:51;69.35;;;36.53;;
9906;SDS011;4992;51.628;6.664;2023-05-10T05:45:17;65.32;;;35.50;;
9906;SDS011;4992;51.628;6.664;2023-05-10T05:47:43;64.50;;;35.38;;
9906;SDS011;4992;51.628;6.664;2023-05-10T05:50:09;59.45;;;34.17;;
9906;SDS011;4992;51.628;6.664;2023-05-10T05:52:35;59.90;;;35.17;;
9906;SDS011;4992;51.628;6.664;2023-05-10T05:55:01;63.10;;;34.88;;
9906;SDS011;4992;51.628;6.664;2023-05-10T05:57:27;60.63;;;33.53;;
9906;SDS011;4992;51.628;6.664;2023-05-10T05:59:53;62.22;;;35.00;;
9906;SDS011;4992;51.628;6.664;2023-05-10T06:02:19;62.10;;;35.42;;
9906;SDS011;4992;51.628;6.664;2023-05-10T06:04:45;56.85;;;33.33;;
9906;SDS011;4992;51.628;6.664;2023-05-10T06:07:11;61.67;;;35.85;;
9906;SDS011;4992;51.628;6.664;2023-05-10T06:09:37;59.30;;;35.05;;
9906;SDS011;4992;51.628;6.664;2023-05-10T06:12:03;68.25;;;38.03;;
9906;SDS011;4992;51.628;6.664;2023-05-10T06:14:30;63.30;;;36.80;;
9906;SDS011;4992;51.628;6.664;2023-05-10T06:16:56;62.20;;;35.47;;
9906;SDS011;4992;51.628;6.664;2023-05-10T06:19:21;59.55;;;34.83;;
9906;SDS011;4992;51.628;6.664;2023-05-10T06:21:47;59.10;;;35.50;;
9906;SDS011;4992;51.628;6.664;2023-05-10T06:24:13;56.25;;;34.17;;
9906;SDS011;4992;51.628;6.664;2023-05-10T06:26:39;57.40;;;33.33;;
9906;SDS011;4992;51.628;6.664;2023-05-10T06:29:05;57.63;;;34.97;;
9906;SDS011;4992;51.628;6.664;2023-05-10T06:31:31;60.05;;;35.72;;
9906;SDS011;4992;51.628;6.664;2023-05-10T06:33:57;58.50;;;35.08;;
9906;SDS011;4992;51.628;6.664;2023-05-10T06:36:23;59.13;;;34.25;;
9906;SDS011;4992;51.628;6.664;2023-05-10T06:38:51;59.35;;;35.53;;
9906;SDS011;4992;51.628;6.664;2023-05-10T06:41:17;60.97;;;36.33;;
9906;SDS011;4992;51.628;6.664;2023-05-10T06:43:43;56.63;;;34.65;;
9906;SDS011;4992;51.628;6.664;2023-05-10T06:46:09;61.30;;;35.15;;
9906;SDS011;4992;51.628;6.664;2023-05-10T06:48:35;56.30;;;36.28;;
9906;SDS011;4992;51.628;6.664;2023-05-10T06:51:01;59.17;;;36.58;;
9906;SDS011;4992;51.628;6.664;2023-05-10T06:53:27;59.47;;;36.80;;
9906;SDS011;4992;51.628;6.664;2023-05-10T06:55:53;61.05;;;35.58;;
9906;SDS011;4992;51.628;6.664;2023-05-10T06:58:19;54.58;;;35.53;;
9906;SDS011;4992;51.628;6.664;2023-05-10T07:00:44;53.67;;;33.78;;
9906;SDS011;4992;51.628;6.664;2023-05-10T07:03:11;55.10;;;33.38;;
9906;SDS011;4992;51.628;6.664;2023-05-10T07:05:37;57.90;;;34.75;;
9906;SDS011;4992;51.628;6.664;2023-05-10T07:08:03;57.58;;;33.15;;
9906;SDS011;4992;51.628;6.664;2023-05-10T07:10:29;53.17;;;33.67;;
9906;SDS011;4992;51.628;6.664;2023-05-10T07:12:55;56.53;;;34.67;;
9906;SDS011;4992;51.628;6.664;2023-05-10T07:15:21;47.47;;;33.33;;
9906;SDS011;4992;51.628;6.664;2023-05-10T07:17:47;49.78;;;33.42;;
9906;SDS011;4992;51.628;6.664;2023-05-10T07:20:13;53.50;;;33.42;;
9906;SDS011;4992;51.628;6.664;2023-05-10T07:22:39;55.50;;;33.85;;
9906;SDS011;4992;51.628;6.664;2023-05-10T07:25:05;50.72;;;32.75;;
9906;SDS011;4992;51.628;6.664;2023-05-10T07:27:31;52.85;;;33.97;;
9906;SDS011;4992;51.628;6.664;2023-05-10T07:29:57;56.70;;;35.17;;
9906;SDS011;4992;51.628;6.664;2023-05-10T07:32:23;48.42;;;33.40;;
9906;SDS011;4992;51.628;6.664;2023-05-10T07:34:49;55.22;;;34.40;;
9906;SDS011;4992;51.628;6.664;2023-05-10T07:37:15;50.28;;;33.45;;
9906;SDS011;4992;51.628;6.664;2023-05-10T07:39:41;52.22;;;34.03;;
9906;SDS011;4992;51.628;6.664;2023-05-10T07:42:07;60.40;;;34.47;;
9906;SDS011;4992;51.628;6.664;2023-05-10T07:44:33;55.05;;;34.33;;
9906;SDS011;4992;51.628;6.664;2023-05-10T07:46:59;52.40;;;32.78;;
9906;SDS011;4992;51.628;6.664;2023-05-10T07:49:25;51.88;;;32.22;;
9906;SDS011;4992;51.628;6.664;2023-05-10T07:51:51;46.03;;;30.77;;
9906;SDS011;4992;51.628;6.664;2023-05-10T07:54:17;42.35;;;28.35;;
9906;SDS011;4992;51.628;6.664;2023-05-10T07:56:43;42.47;;;29.30;;
9906;SDS011;4992;51.628;6.664;2023-05-10T07:59:14;44.55;;;29.00;;
9906;SDS011;4992;51.628;6.664;2023-05-10T08:01:40;40.40;;;28.83;;
9906;SDS011;4992;51.628;6.664;2023-05-10T08:04:06;37.60;;;26.52;;
9906;SDS011;4992;51.628;6.664;2023-05-10T08:06:32;41.08;;;28.13;;
9906;SDS011;4992;51.628;6.664;2023-05-10T08:08:58;35.83;;;27.02;;
9906;SDS011;4992;51.628;6.664;2023-05-10T08:11:24;40.33;;;25.00;;
9906;SDS011;4992;51.628;6.664;2023-05-10T08:13:50;34.88;;;24.10;;
9906;SDS011;4992;51.628;6.664;2023-05-10T08:16:16;33.17;;;24.17;;
9906;SDS011;4992;51.628;6.664;2023-05-10T08:18:43;36.30;;;26.30;;
9906;SDS011;4992;51.628;6.664;2023-05-10T08:21:09;35.05;;;25.40;;
9906;SDS011;4992;51.628;6.664;2023-05-10T08:23:38;40.55;;;26.65;;
9906;SDS011;4992;51.628;6.664;2023-05-10T08:26:04;34.70;;;24.08;;
9906;SDS011;4992;51.628;6.664;2023-05-10T08:28:30;36.67;;;25.05;;
9906;SDS011;4992;51.628;6.664;2023-05-10T08:30:56;35.20;;;24.23;;
9906;SDS011;4992;51.628;6.664;2023-05-10T08:33:22;33.42;;;23.27;;
9906;SDS011;4992;51.628;6.664;2023-05-10T08:35:48;27.60;;;21.58;;
9906;SDS011;4992;51.628;6.664;2023-05-10T08:38:14;29.38;;;21.25;;
9906;SDS011;4992;51.628;6.664;2023-05-10T08:40:41;30.42;;;22.48;;
9906;SDS011;4992;51.628;6.664;2023-05-10T08:43:08;31.30;;;23.27;;
9906;SDS011;4992;51.628;6.664;2023-05-10T08:45:38;36.30;;;24.20;;
9906;SDS011;4992;51.628;6.664;2023-05-10T08:48:05;34.25;;;23.95;;
9906;SDS011;4992;51.628;6.664;2023-05-10T08:50:31;33.90;;;23.35;;
9906;SDS011;4992;51.628;6.664;2023-05-10T08:53:00;33.88;;;23.83;;
9906;SDS011;4992;51.628;6.664;2023-05-10T08:55:28;38.20;;;24.50;;
9906;SDS011;4992;51.628;6.664;2023-05-10T08:57:55;28.77;;;23.23;;
9906;SDS011;4992;51.628;6.664;2023-05-10T09:00:21;31.63;;;23.95;;
9906;SDS011;4992;51.628;6.664;2023-05-10T09:02:49;33.15;;;22.90;;
9906;SDS011;4992;51.628;6.664;2023-05-10T09:05:15;32.47;;;22.98;;
9906;SDS011;4992;51.628;6.664;2023-05-10T09:07:42;29.48;;;21.42;;
9906;SDS011;4992;51.628;6.664;2023-05-10T09:10:08;31.13;;;21.17;;
9906;SDS011;4992;51.628;6.664;2023-05-10T09:12:35;30.13;;;21.25;;
9906;SDS011;4992;51.628;6.664;2023-05-10T09:15:01;29.08;;;21.10;;
9906;SDS011;4992;51.628;6.664;2023-05-10T09:17:27;30.58;;;21.25;;
9906;SDS011;4992;51.628;6.664;2023-05-10T09:20:00;28.98;;;20.95;;
9906;SDS011;4992;51.628;6.664;2023-05-10T09:22:27;29.40;;;19.92;;
9906;SDS011;4992;51.628;6.664;2023-05-10T09:27:49;27.13;;;19.73;;
9906;SDS011;4992;51.628;6.664;2023-05-10T09:30:15;24.88;;;20.73;;
9906;SDS011;4992;51.628;6.664;2023-05-10T09:32:42;28.38;;;21.63;;
9906;SDS011;4992;51.628;6.664;2023-05-10T09:35:13;26.30;;;21.52;;
9906;SDS011;4992;51.628;6.664;2023-05-10T09:37:40;26.25;;;21.20;;
9906;SDS011;4992;51.628;6.664;2023-05-10T09:40:06;27.33;;;21.45;;
9906;SDS011;4992;51.628;6.664;2023-05-10T09:42:33;24.92;;;20.15;;
9906;SDS011;4992;51.628;6.664;2023-05-10T09:45:01;24.65;;;20.08;;
9906;SDS011;4992;51.628;6.664;2023-05-10T09:47:27;28.05;;;20.52;;
9906;SDS011;4992;51.628;6.664;2023-05-10T09:49:53;26.60;;;18.98;;
9906;SDS011;4992;51.628;6.664;2023-05-10T09:52:22;21.85;;;16.90;;
9906;SDS011;4992;51.628;6.664;2023-05-10T09:54:52;21.10;;;15.77;;
9906;SDS011;4992;51.628;6.664;2023-05-10T09:57:22;21.58;;;17.00;;
9906;SDS011;4992;51.628;6.664;2023-05-10T09:59:48;21.95;;;16.73;;
9906;SDS011;4992;51.628;6.664;2023-05-10T10:02:15;17.88;;;15.38;;
9906;SDS011;4992;51.628;6.664;2023-05-10T10:04:41;23.40;;;16.02;;
9906;SDS011;4992;51.628;6.664;2023-05-10T10:07:07;20.13;;;16.83;;
9906;SDS011;4992;51.628;6.664;2023-05-10T10:09:34;19.92;;;14.98;;
9906;SDS011;4992;51.628;6.664;2023-05-10T10:12:03;18.15;;;15.65;;
9906;SDS011;4992;51.628;6.664;2023-05-10T10:14:29;21.92;;;16.13;;
9906;SDS011;4992;51.628;6.664;2023-05-10T10:16:55;23.85;;;16.17;;
9906;SDS011;4992;51.628;6.664;2023-05-10T10:19:21;20.88;;;16.77;;
9906;SDS011;4992;51.628;6.664;2023-05-10T10:21:48;19.50;;;16.70;;
9906;SDS011;4992;51.628;6.664;2023-05-10T10:24:15;22.77;;;16.70;;
9906;SDS011;4992;51.628;6.664;2023-05-10T10:26:41;21.05;;;16.92;;
9906;SDS011;4992;51.628;6.664;2023-05-10T10:29:23;20.00;;;16.63;;
9906;SDS011;4992;51.628;6.664;2023-05-10T10:32:03;20.05;;;16.83;;
9906;SDS011;4992;51.628;6.664;2023-05-10T10:34:32;19.23;;;16.58;;
9906;SDS011;4992;51.628;6.664;2023-05-10T10:36:58;20.27;;;17.50;;
9906;SDS011;4992;51.628;6.664;2023-05-10T10:39:29;19.13;;;16.77;;
9906;SDS011;4992;51.628;6.664;2023-05-10T10:41:56;24.17;;;17.92;;
9906;SDS011;4992;51.628;6.664;2023-05-10T10:46:58;22.13;;;17.17;;
9906;SDS011;4992;51.628;6.664;2023-05-10T10:49:25;24.60;;;19.88;;
9906;SDS011;4992;51.628;6.664;2023-05-10T10:54:36;20.08;;;16.60;;
9906;SDS011;4992;51.628;6.664;2023-05-10T10:57:10;19.88;;;16.90;;
9906;SDS011;4992;51.628;6.664;2023-05-10T10:59:36;20.50;;;17.67;;
9906;SDS011;4992;51.628;6.664;2023-05-10T11:02:07;23.42;;;18.40;;
9906;SDS011;4992;51.628;6.664;2023-05-10T11:04:43;27.73;;;18.40;;
9906;SDS011;4992;51.628;6.664;2023-05-10T11:07:17;23.35;;;19.00;;
9906;SDS011;4992;51.628;6.664;2023-05-10T11:09:44;24.63;;;19.35;;
9906;SDS011;4992;51.628;6.664;2023-05-10T11:12:11;26.75;;;20.02;;
9906;SDS011;4992;51.628;6.664;2023-05-10T11:14:37;24.90;;;20.40;;
9906;SDS011;4992;51.628;6.664;2023-05-10T11:17:21;22.45;;;19.30;;
9906;SDS011;4992;51.628;6.664;2023-05-10T11:20:07;22.90;;;20.35;;
9906;SDS011;4992;51.628;6.664;2023-05-10T11:22:55;27.02;;;21.30;;
9906;SDS011;4992;51.628;6.664;2023-05-10T11:25:26;23.85;;;19.42;;
9906;SDS011;4992;51.628;6.664;2023-05-10T11:27:52;24.70;;;20.50;;
9906;SDS011;4992;51.628;6.664;2023-05-10T11:30:18;21.85;;;19.42;;
9906;SDS011;4992;51.628;6.664;2023-05-10T11:32:44;23.60;;;19.90;;
9906;SDS011;4992;51.628;6.664;2023-05-10T11:35:10;23.05;;;18.73;;
9906;SDS011;4992;51.628;6.664;2023-05-10T11:37:38;23.42;;;19.40;;
9906;SDS011;4992;51.628;6.664;2023-05-10T11:40:08;21.30;;;18.05;;
9906;SDS011;4992;51.628;6.664;2023-05-10T11:42:36;20.73;;;18.23;;
9906;SDS011;4992;51.628;6.664;2023-05-10T11:45:02;21.23;;;17.40;;
9906;SDS011;4992;51.628;6.664;2023-05-10T11:47:28;20.35;;;16.23;;
9906;SDS011;4992;51.628;6.664;2023-05-10T11:49:55;19.77;;;15.95;;
9906;SDS011;4992;51.628;6.664;2023-05-10T11:52:21;19.38;;;14.98;;
9906;SDS011;4992;51.628;6.664;2023-05-10T11:54:53;16.95;;;15.07;;
9906;SDS011;4992;51.628;6.664;2023-05-10T11:57:20;15.98;;;14.38;;
9906;SDS011;4992;51.628;6.664;2023-05-10T11:59:46;18.55;;;14.60;;
9906;SDS011;4992;51.628;6.664;2023-05-10T12:02:15;18.52;;;14.30;;
9906;SDS011;4992;51.628;6.664;2023-05-10T12:04:41;16.48;;;14.05;;
9906;SDS011;4992;51.628;6.664;2023-05-10T12:07:07;17.70;;;13.60;;
9906;SDS011;4992;51.628;6.664;2023-05-10T12:09:33;14.15;;;12.65;;
9906;SDS011;4992;51.628;6.664;2023-05-10T12:11:59;15.02;;;13.38;;
9906;SDS011;4992;51.628;6.664;2023-05-10T12:14:25;15.20;;;13.68;;
9906;SDS011;4992;51.628;6.664;2023-05-10T12:16:51;14.68;;;13.05;;
9906;SDS011;4992;51.628;6.664;2023-05-10T12:19:20;15.65;;;13.32;;
9906;SDS011;4992;51.628;6.664;2023-05-10T12:21:46;14.60;;;12.95;;
9906;SDS011;4992;51.628;6.664;2023-05-10T12:24:12;17.88;;;15.00;;
9906;SDS011;4992;51.628;6.664;2023-05-10T12:26:41;15.20;;;13.73;;
9906;SDS011;4992;51.628;6.664;2023-05-10T12:29:14;13.85;;;12.43;;
9906;SDS011;4992;51.628;6.664;2023-05-10T12:31:54;14.93;;;12.23;;
9906;SDS011;4992;51.628;6.664;2023-05-10T12:34:30;14.10;;;11.77;;
9906;SDS011;4992;51.628;6.664;2023-05-10T12:36:56;12.10;;;10.57;;
9906;SDS011;4992;51.628;6.664;2023-05-10T12:39:23;12.45;;;11.00;;
9906;SDS011;4992;51.628;6.664;2023-05-10T12:41:50;10.88;;;9.68;;
9906;SDS011;4992;51.628;6.664;2023-05-10T12:44:16;11.07;;;9.93;;
9906;SDS011;4992;51.628;6.664;2023-05-10T12:46:42;10.45;;;9.43;;
9906;SDS011;4992;51.628;6.664;2023-05-10T12:49:08;13.02;;;9.60;;
9906;SDS011;4992;51.628;6.664;2023-05-10T12:51:35;10.30;;;9.32;;
9906;SDS011;4992;51.628;6.664;2023-05-10T12:54:02;11.48;;;9.20;;
9906;SDS011;4992;51.628;6.664;2023-05-10T12:56:28;10.30;;;9.18;;
9906;SDS011;4992;51.628;6.664;2023-05-10T12:58:54;10.52;;;9.10;;
9906;SDS011;4992;51.628;6.664;2023-05-10T13:01:20;11.10;;;9.43;;
9906;SDS011;4992;51.628;6.664;2023-05-10T13:03:46;14.43;;;9.80;;
9906;SDS011;4992;51.628;6.664;2023-05-10T13:06:12;11.18;;;9.18;;
9906;SDS011;4992;51.628;6.664;2023-05-10T13:08:39;10.45;;;9.45;;
9906;SDS011;4992;51.628;6.664;2023-05-10T13:11:05;9.93;;;9.05;;
9906;SDS011;4992;51.628;6.664;2023-05-10T13:13:31;9.73;;;8.75;;
9906;SDS011;4992;51.628;6.664;2023-05-10T13:15:57;19.05;;;12.65;;
9906;SDS011;4992;51.628;6.664;2023-05-10T13:18:23;13.00;;;11.77;;
9906;SDS011;4992;51.628;6.664;2023-05-10T13:20:49;13.93;;;12.52;;
9906;SDS011;4992;51.628;6.664;2023-05-10T13:23:15;14.38;;;11.13;;
9906;SDS011;4992;51.628;6.664;2023-05-10T13:25:41;14.00;;;12.65;;
9906;SDS011;4992;51.628;6.664;2023-05-10T13:28:07;12.98;;;11.68;;
9906;SDS011;4992;51.628;6.664;2023-05-10T13:30:33;12.88;;;11.57;;
9906;SDS011;4992;51.628;6.664;2023-05-10T13:32:59;13.20;;;11.40;;
9906;SDS011;4992;51.628;6.664;2023-05-10T13:35:25;12.80;;;11.50;;
9906;SDS011;4992;51.628;6.664;2023-05-10T13:37:51;11.63;;;10.48;;
9906;SDS011;4992;51.628;6.664;2023-05-10T13:40:18;12.98;;;11.55;;
9906;SDS011;4992;51.628;6.664;2023-05-10T13:42:44;12.88;;;11.57;;
9906;SDS011;4992;51.628;6.664;2023-05-10T13:45:10;12.80;;;11.50;;
9906;SDS011;4992;51.628;6.664;2023-05-10T13:47:37;13.07;;;11.82;;
9906;SDS011;4992;51.628;6.664;2023-05-10T13:50:03;13.00;;;11.45;;
9906;SDS011;4992;51.628;6.664;2023-05-10T13:52:29;12.32;;;11.05;;
9906;SDS011;4992;51.628;6.664;2023-05-10T13:54:55;12.70;;;11.45;;
9906;SDS011;4992;51.628;6.664;2023-05-10T13:57:22;13.13;;;11.30;;
9906;SDS011;4992;51.628;6.664;2023-05-10T13:59:48;11.48;;;10.38;;
9906;SDS011;4992;51.628;6.664;2023-05-10T14:02:14;9.55;;;8.60;;
9906;SDS011;4992;51.628;6.664;2023-05-10T14:04:40;11.00;;;8.13;;
9906;SDS011;4992;51.628;6.664;2023-05-10T14:07:06;6.22;;;5.63;;
9906;SDS011;4992;51.628;6.664;2023-05-10T14:09:32;6.43;;;5.68;;
9906;SDS011;4992;51.628;6.664;2023-05-10T14:11:58;7.07;;;6.50;;
9906;SDS011;4992;51.628;6.664;2023-05-10T14:14:24;7.80;;;7.00;;
9906;SDS011;4992;51.628;6.664;2023-05-10T14:16:50;7.85;;;7.15;;
9906;SDS011;4992;51.628;6.664;2023-05-10T14:19:16;9.23;;;8.32;;
9906;SDS011;4992;51.628;6.664;2023-05-10T14:21:42;9.55;;;8.45;;
9906;SDS011;4992;51.628;6.664;2023-05-10T14:24:09;9.02;;;8.15;;
9906;SDS011;4992;51.628;6.664;2023-05-10T14:26:35;9.73;;;8.68;;
9906;SDS011;4992;51.628;6.664;2023-05-10T14:29:01;10.48;;;8.93;;
9906;SDS011;4992;51.628;6.664;2023-05-10T14:31:27;10.60;;;9.55;;
9906;SDS011;4992;51.628;6.664;2023-05-10T14:33:55;11.35;;;8.50;;
9906;SDS011;4992;51.628;6.664;2023-05-10T14:36:21;9.95;;;9.00;;
9906;SDS011;4992;51.628;6.664;2023-05-10T14:38:47;9.43;;;8.50;;
9906;SDS011;4992;51.628;6.664;2023-05-10T14:41:13;10.25;;;9.27;;
9906;SDS011;4992;51.628;6.664;2023-05-10T14:43:40;10.90;;;9.38;;
9906;SDS011;4992;51.628;6.664;2023-05-10T14:46:06;9.85;;;8.90;;
9906;SDS011;4992;51.628;6.664;2023-05-10T14:48:32;10.40;;;9.50;;
9906;SDS011;4992;51.628;6.664;2023-05-10T14:50:58;9.48;;;8.50;;
9906;SDS011;4992;51.628;6.664;2023-05-10T14:53:24;12.55;;;8.82;;
9906;SDS011;4992;51.628;6.664;2023-05-10T14:55:50;9.40;;;8.55;;
9906;SDS011;4992;51.628;6.664;2023-05-10T14:58:16;9.73;;;8.73;;
9906;SDS011;4992;51.628;6.664;2023-05-10T15:00:42;11.68;;;9.50;;
9906;SDS011;4992;51.628;6.664;2023-05-10T15:03:08;10.10;;;8.70;;
9906;SDS011;4992;51.628;6.664;2023-05-10T15:05:34;7.55;;;5.88;;
9906;SDS011;4992;51.628;6.664;2023-05-10T15:08:02;7.35;;;4.70;;
9906;SDS011;4992;51.628;6.664;2023-05-10T15:10:28;4.22;;;3.78;;
9906;SDS011;4992;51.628;6.664;2023-05-10T15:12:54;6.40;;;3.70;;
9906;SDS011;4992;51.628;6.664;2023-05-10T15:15:20;9.18;;;4.47;;
9906;SDS011;4992;51.628;6.664;2023-05-10T15:17:47;8.35;;;4.85;;